createdAt,value
2019-05-06T00:00:25.189Z,74.38
2019-05-06T00:02:54.601Z,74.29
2019-05-06T00:05:25.450Z,74.60
2019-05-06T00:07:54.969Z,74.60
2019-05-06T00:10:25.614Z,75.58
2019-05-06T00:12:54.902Z,75.58
2019-05-06T00:15:23.801Z,76.08
2019-05-06T00:17:53.847Z,76.74
2019-05-06T00:20:24.414Z,76.74
2019-05-06T00:22:56.306Z,76.64
2019-05-06T00:25:41.482Z,76.71
2019-05-06T00:28:34.128Z,77.05
2019-05-06T00:31:12.873Z,77.05
2019-05-06T00:33:35.361Z,77.50
2019-05-06T00:36:04.808Z,77.82
2019-05-06T00:38:34.253Z,77.82
2019-05-06T00:41:06.061Z,78.10
2019-05-06T00:43:34.967Z,78.10
2019-05-06T00:46:04.643Z,78.38
2019-05-06T00:48:34.367Z,79.23
2019-05-06T00:51:04.578Z,79.00
2019-05-06T00:53:35.902Z,80.18
2019-05-06T00:56:04.839Z,79.87
2019-05-06T00:58:34.781Z,79.87
2019-05-06T01:01:04.657Z,80.37
2019-05-06T01:03:34.733Z,80.55
2019-05-06T01:06:04.012Z,80.71
2019-05-06T01:08:34.770Z,80.64
2019-05-06T01:11:04.119Z,80.59
2019-05-06T01:13:44.732Z,80.87
2019-05-06T01:16:15.746Z,80.52
2019-05-06T01:18:44.506Z,80.74
2019-05-06T01:21:14.498Z,80.82
2019-05-06T01:23:45.046Z,80.76
2019-05-06T01:26:15.233Z,80.24
2019-05-06T01:28:44.303Z,80.33
2019-05-06T01:31:14.090Z,80.33
2019-05-06T01:33:45.182Z,80.33
2019-05-06T01:36:14.190Z,80.05
2019-05-06T01:39:11.063Z,80.02
2019-05-06T01:41:45.706Z,79.98
2019-05-06T01:44:14.405Z,80.43
2019-05-06T01:46:44.739Z,80.01
2019-05-06T01:49:13.838Z,80.18
2019-05-06T01:51:43.813Z,79.94
2019-05-06T01:54:14.127Z,79.62
2019-05-06T01:56:44.488Z,79.71
2019-05-06T01:59:14.198Z,80.25
2019-05-06T02:01:54.809Z,80.11
2019-05-06T02:04:13.936Z,80.36
2019-05-06T02:06:43.743Z,80.95
2019-05-06T02:09:16.675Z,80.85
2019-05-06T02:11:48.108Z,80.84
2019-05-06T02:14:16.972Z,80.54
2019-05-06T02:16:45.850Z,80.60
2019-05-06T02:19:14.889Z,80.80
2019-05-06T02:22:01.550Z,80.87
2019-05-06T02:25:01.470Z,80.88
2019-05-06T02:27:30.868Z,80.82
2019-05-06T02:30:17.051Z,80.76
2019-05-06T02:33:01.093Z,80.91
2019-05-06T02:36:07.390Z,81.05
2019-05-06T02:38:46.681Z,81.39
2019-05-06T02:41:07.130Z,81.69
2019-05-06T02:43:36.149Z,81.99
2019-05-06T02:46:04.949Z,81.72
2019-05-06T02:48:48.452Z,81.74
2019-05-06T02:51:19.128Z,81.70
2019-05-06T02:53:47.777Z,81.88
2019-05-06T02:56:16.416Z,82.31
2019-05-06T02:58:45.477Z,82.81
2019-05-06T03:01:14.441Z,82.95
2019-05-06T03:03:43.779Z,83.34
2019-05-06T03:06:13.393Z,83.33
2019-05-06T03:08:43.676Z,83.47
2019-05-06T03:11:13.763Z,83.45
2019-05-06T03:13:43.974Z,83.48
2019-05-06T03:16:14.120Z,83.79
2019-05-06T03:18:43.747Z,83.67
2019-05-06T03:21:33.716Z,83.61
2019-05-06T03:24:23.462Z,83.91
2019-05-06T03:26:53.444Z,83.71
2019-05-06T03:29:25.352Z,83.69
2019-05-06T03:31:56.285Z,83.90
2019-05-06T03:34:49.506Z,84.23
2019-05-06T03:36:56.478Z,84.20
2019-05-06T03:39:25.552Z,83.90
2019-05-06T03:41:54.145Z,83.95
2019-05-06T03:44:23.887Z,83.91
2019-05-06T03:47:13.888Z,83.57
2019-05-06T03:49:49.687Z,83.71
2019-05-06T03:52:16.302Z,83.26
2019-05-06T03:54:47.062Z,83.11
2019-05-06T03:57:16.052Z,83.28
2019-05-06T03:59:45.576Z,82.68
2019-05-06T04:02:14.551Z,82.77
2019-05-06T04:04:44.092Z,83.06
2019-05-06T04:07:14.038Z,82.69
2019-05-06T04:09:44.188Z,82.19
2019-05-06T04:12:14.408Z,82.44
2019-05-06T04:14:43.505Z,82.44
2019-05-06T04:17:17.208Z,82.67
2019-05-06T04:19:53.218Z,82.37
2019-05-06T04:22:43.981Z,82.12
2019-05-06T04:25:33.884Z,82.37
2019-05-06T04:28:26.655Z,81.73
2019-05-06T04:30:55.711Z,81.49
2019-05-06T04:33:24.776Z,81.49
2019-05-06T04:35:54.213Z,80.81
2019-05-06T04:38:23.705Z,80.81
2019-05-06T04:40:53.901Z,81.02
2019-05-06T04:43:26.962Z,81.09
2019-05-06T04:45:54.404Z,80.71
2019-05-06T04:48:23.983Z,81.32
2019-05-06T04:50:53.730Z,81.31
2019-05-06T04:53:26.719Z,81.31
2019-05-06T04:55:54.009Z,81.35
2019-05-06T04:58:23.630Z,80.57
2019-05-06T05:00:54.008Z,80.69
2019-05-06T05:03:23.085Z,79.79
2019-05-06T05:05:53.028Z,79.79
2019-05-06T05:08:25.500Z,79.78
2019-05-06T05:11:00.394Z,79.96
2019-05-06T05:14:02.806Z,79.82
2019-05-06T05:16:38.693Z,80.03
2019-05-06T05:19:09.730Z,79.37
2019-05-06T05:21:39.066Z,78.67
2019-05-06T05:24:08.264Z,78.54
2019-05-06T05:26:38.198Z,78.18
2019-05-06T05:29:07.577Z,78.18
2019-05-06T05:31:36.284Z,77.73
2019-05-06T05:34:05.115Z,77.99
2019-05-06T05:36:34.359Z,78.15
2019-05-06T05:39:03.524Z,77.15
2019-05-06T05:41:33.385Z,77.15
2019-05-06T05:44:14.358Z,77.67
2019-05-06T05:46:43.856Z,78.28
2019-05-06T05:49:24.417Z,78.28
2019-05-06T05:51:52.408Z,78.57
2019-05-06T05:54:23.184Z,77.69
2019-05-06T05:56:53.022Z,77.87
2019-05-06T05:59:23.123Z,77.87
2019-05-06T06:01:53.079Z,77.79
2019-05-06T06:04:22.780Z,77.47
2019-05-06T06:06:52.094Z,77.10
2019-05-06T06:09:22.624Z,76.52
2019-05-06T06:11:57.956Z,76.52
2019-05-06T06:14:56.218Z,76.50
2019-05-06T06:17:49.002Z,76.18
2019-05-06T06:20:35.999Z,75.88
2019-05-06T06:23:10.676Z,75.84
2019-05-06T06:25:42.249Z,75.64
2019-05-06T06:28:11.970Z,75.57
2019-05-06T06:30:52.054Z,75.50
2019-05-06T06:33:22.359Z,75.50
2019-05-06T06:35:58.098Z,75.82
2019-05-06T06:38:48.300Z,76.61
2019-05-06T06:41:17.317Z,76.61
2019-05-06T06:43:48.812Z,77.38
2019-05-06T06:46:18.161Z,78.07
2019-05-06T06:48:47.259Z,78.56
2019-05-06T06:51:16.148Z,78.56
2019-05-06T06:53:44.869Z,76.75
2019-05-06T06:56:35.229Z,76.99
2019-05-06T06:59:09.295Z,76.99
2019-05-06T07:01:48.067Z,75.17
2019-05-06T07:04:26.991Z,75.02
2019-05-06T07:06:56.492Z,74.90
2019-05-06T07:09:25.567Z,74.56
2019-05-06T07:11:54.485Z,73.98
2019-05-06T07:14:23.478Z,74.10
2019-05-06T07:16:53.368Z,72.82
2019-05-06T07:19:47.165Z,72.74
2019-05-06T07:22:15.801Z,72.93
2019-05-06T07:24:44.401Z,72.23
2019-05-06T07:27:17.835Z,72.22
2019-05-06T07:29:48.104Z,72.69
2019-05-06T07:32:17.572Z,73.24
2019-05-06T07:34:46.458Z,72.39
2019-05-06T07:37:15.448Z,71.42
2019-05-06T07:39:44.338Z,70.88
2019-05-06T07:42:19.050Z,70.32
2019-05-06T07:45:07.109Z,70.37
2019-05-06T07:47:42.639Z,70.65
2019-05-06T07:50:13.114Z,69.55
2019-05-06T07:52:44.642Z,70.39
2019-05-06T07:55:13.674Z,69.84
2019-05-06T07:57:42.636Z,69.72
2019-05-06T08:00:12.591Z,68.81
2019-05-06T08:02:42.586Z,69.37
2019-05-06T08:05:12.730Z,69.59
2019-05-06T08:07:42.360Z,69.56
2019-05-06T08:10:13.540Z,69.56
2019-05-06T08:12:42.871Z,69.90
2019-05-06T08:15:12.658Z,69.34
2019-05-06T08:17:42.587Z,69.01
2019-05-06T08:20:12.932Z,69.01
2019-05-06T08:22:56.575Z,68.55
2019-05-06T08:25:26.036Z,70.03
2019-05-06T08:27:55.024Z,70.03
2019-05-06T08:30:24.031Z,69.73
2019-05-06T08:32:52.996Z,67.97
2019-05-06T08:35:22.725Z,67.64
2019-05-06T08:37:53.107Z,67.50
2019-05-06T08:40:23.680Z,67.31
2019-05-06T08:42:53.280Z,67.45
2019-05-06T08:45:22.176Z,67.45
2019-05-06T08:47:52.347Z,64.71
2019-05-06T08:50:32.767Z,64.71
2019-05-06T08:53:13.624Z,64.23
2019-05-06T08:55:42.113Z,64.28
2019-05-06T08:58:11.206Z,64.56
2019-05-06T09:00:47.162Z,63.28
2019-05-06T09:03:15.754Z,62.36
2019-05-06T09:05:53.289Z,62.55
2019-05-06T09:08:23.845Z,58.58
2019-05-06T09:10:52.870Z,58.76
2019-05-06T09:13:23.176Z,59.71
2019-05-06T09:15:52.773Z,59.38
2019-05-06T09:18:23.868Z,57.62
2019-05-06T09:20:53.659Z,56.63
2019-05-06T09:23:22.855Z,56.35
2019-05-06T09:25:53.147Z,57.50
2019-05-06T09:28:29.346Z,56.71
2019-05-06T09:31:12.508Z,57.36
2019-05-06T09:33:47.156Z,56.61
2019-05-06T09:36:15.898Z,55.29
2019-05-06T09:38:44.572Z,56.10
2019-05-06T09:41:13.666Z,56.29
2019-05-06T09:43:43.378Z,55.65
2019-05-06T09:46:13.011Z,55.75
2019-05-06T09:49:19.664Z,55.25
2019-05-06T09:51:48.550Z,54.82
2019-05-06T09:54:33.626Z,55.51
2019-05-06T09:57:06.303Z,55.08
2019-05-06T09:59:42.044Z,54.80
2019-05-06T10:02:12.350Z,56.03
2019-05-06T10:04:42.844Z,55.06
2019-05-06T10:07:12.513Z,55.35
2019-05-06T10:09:43.431Z,56.14
2019-05-06T10:12:12.881Z,56.89
2019-05-06T10:14:43.278Z,57.04
2019-05-06T10:17:13.148Z,57.47
2019-05-06T10:19:43.036Z,58.58
2019-05-06T10:22:12.669Z,57.97
2019-05-06T10:24:43.117Z,58.59
2019-05-06T10:27:12.438Z,57.92
2019-05-06T10:29:59.370Z,55.39
2019-05-06T10:32:39.504Z,55.72
2019-05-06T10:35:08.935Z,56.95
2019-05-06T10:37:56.062Z,58.80
2019-05-06T10:40:28.910Z,59.50
2019-05-06T10:43:07.766Z,60.77
2019-05-06T10:45:36.641Z,61.38
2019-05-06T10:48:06.047Z,61.99
2019-05-06T10:50:39.513Z,61.38
2019-05-06T10:53:25.245Z,61.08
2019-05-06T10:55:55.221Z,61.56
2019-05-06T10:58:24.513Z,62.51
2019-05-06T11:01:12.655Z,66.24
2019-05-06T11:03:42.119Z,69.40
2019-05-06T11:06:13.164Z,72.06
2019-05-06T11:08:42.176Z,71.29
2019-05-06T11:11:15.276Z,70.91
2019-05-06T11:13:41.375Z,67.68
2019-05-06T11:16:10.344Z,64.38
2019-05-06T11:18:39.638Z,61.58
2019-05-06T11:21:08.273Z,60.40
2019-05-06T11:23:37.219Z,57.85
2019-05-06T11:26:05.838Z,56.17
2019-05-06T11:28:47.706Z,54.76
2019-05-06T11:31:34.538Z,53.80
2019-05-06T11:34:25.384Z,49.96
2019-05-06T11:37:15.055Z,51.10
2019-05-06T11:39:43.987Z,49.22
2019-05-06T11:42:27.563Z,49.00
2019-05-06T11:44:44.044Z,49.34
2019-05-06T11:47:13.086Z,50.49
2019-05-06T11:49:44.114Z,50.64
2019-05-06T11:52:13.146Z,50.15
2019-05-06T11:54:42.280Z,50.02
2019-05-06T11:57:12.562Z,49.69
2019-05-06T11:59:43.256Z,48.27
2019-05-06T12:02:15.071Z,47.05
2019-05-06T12:04:43.716Z,46.35
2019-05-06T12:07:15.793Z,46.89
2019-05-06T12:09:43.387Z,46.11
2019-05-06T12:12:12.751Z,44.59
2019-05-06T12:14:42.923Z,45.51
2019-05-06T12:17:12.764Z,43.53
2019-05-06T12:19:43.177Z,43.12
2019-05-06T12:22:12.609Z,43.99
2019-05-06T12:24:43.093Z,46.61
2019-05-06T12:27:14.843Z,45.73
2019-05-06T12:29:43.571Z,44.78
2019-05-06T12:32:34.741Z,43.92
2019-05-06T12:35:03.641Z,46.25
2019-05-06T12:37:32.827Z,44.31
2019-05-06T12:40:03.407Z,43.16
2019-05-06T12:42:35.528Z,40.77
2019-05-06T12:45:27.518Z,41.90
2019-05-06T12:47:58.912Z,42.04
2019-05-06T12:50:27.925Z,42.12
2019-05-06T12:52:57.829Z,43.13
2019-05-06T12:55:26.974Z,43.73
2019-05-06T12:57:55.990Z,45.30
2019-05-06T13:00:26.433Z,46.08
2019-05-06T13:02:55.657Z,46.04
2019-05-06T13:05:24.730Z,46.76
2019-05-06T13:07:53.622Z,44.83
2019-05-06T13:10:23.390Z,45.88
2019-05-06T13:13:12.737Z,45.16
2019-05-06T13:15:43.510Z,44.80
2019-05-06T13:18:12.124Z,44.60
2019-05-06T13:20:48.121Z,48.07
2019-05-06T13:23:30.074Z,53.75
2019-05-06T13:25:59.106Z,57.82
2019-05-06T13:28:31.269Z,57.04
2019-05-06T13:31:16.140Z,53.24
2019-05-06T13:33:37.560Z,51.49
2019-05-06T13:36:06.331Z,51.14
2019-05-06T13:38:35.205Z,55.52
2019-05-06T13:41:04.200Z,51.98
2019-05-06T13:43:43.372Z,53.65
2019-05-06T13:46:17.680Z,55.79
2019-05-06T13:48:57.316Z,55.76
2019-05-06T13:51:27.511Z,56.70
2019-05-06T13:53:56.413Z,56.34
2019-05-06T13:56:25.410Z,56.38
2019-05-06T13:58:54.390Z,54.89
2019-05-06T14:01:24.731Z,52.70
2019-05-06T14:03:53.344Z,48.05
2019-05-06T14:06:21.987Z,48.52
2019-05-06T14:08:52.927Z,48.90
2019-05-06T14:11:23.044Z,49.16
2019-05-06T14:13:53.004Z,48.12
2019-05-06T14:16:24.543Z,45.67
2019-05-06T14:18:53.431Z,46.21
2019-05-06T14:21:23.024Z,48.14
2019-05-06T14:23:51.881Z,48.18
2019-05-06T14:26:26.954Z,47.05
2019-05-06T14:29:02.436Z,44.99
2019-05-06T14:31:34.252Z,43.24
2019-05-06T14:34:03.657Z,41.66
2019-05-06T14:36:32.880Z,41.18
2019-05-06T14:39:04.717Z,40.69
2019-05-06T14:41:32.825Z,41.39
2019-05-06T14:44:02.710Z,40.67
2019-05-06T14:46:50.757Z,39.63
2019-05-06T14:49:22.391Z,40.65
2019-05-06T14:51:50.774Z,40.21
2019-05-06T14:54:21.732Z,40.47
2019-05-06T14:56:54.412Z,44.05
2019-05-06T14:59:23.611Z,46.39
2019-05-06T15:01:53.646Z,46.00
2019-05-06T15:04:23.131Z,43.41
2019-05-06T15:06:52.950Z,41.47
2019-05-06T15:09:22.641Z,41.61
2019-05-06T15:11:52.314Z,41.39
2019-05-06T15:14:22.690Z,41.65
2019-05-06T15:16:52.832Z,42.45
2019-05-06T15:19:22.724Z,42.83
2019-05-06T15:21:53.094Z,43.81
2019-05-06T15:24:24.433Z,42.89
2019-05-06T15:26:52.658Z,42.69
2019-05-06T15:29:23.664Z,43.13
2019-05-06T15:32:15.020Z,43.86
2019-05-06T15:34:58.823Z,44.91
2019-05-06T15:37:33.997Z,46.42
2019-05-06T15:40:03.220Z,46.59
2019-05-06T15:42:34.260Z,45.84
2019-05-06T15:45:04.150Z,46.61
2019-05-06T15:47:33.245Z,44.37
2019-05-06T15:50:02.213Z,42.49
2019-05-06T15:52:32.475Z,41.81
2019-05-06T15:55:03.242Z,43.91
2019-05-06T15:57:32.798Z,45.31
2019-05-06T16:00:02.767Z,47.36
2019-05-06T16:02:33.491Z,49.12
2019-05-06T16:05:11.329Z,50.98
2019-05-06T16:07:37.118Z,50.20
2019-05-06T16:10:03.723Z,51.02
2019-05-06T16:12:32.328Z,50.80
2019-05-06T16:15:02.608Z,51.37
2019-05-06T16:17:32.802Z,50.41
2019-05-06T16:20:02.729Z,51.18
2019-05-06T16:22:33.626Z,50.97
2019-05-06T16:25:10.569Z,50.04
2019-05-06T16:27:39.483Z,49.28
2019-05-06T16:30:09.218Z,49.06
2019-05-06T16:32:38.183Z,46.85
2019-05-06T16:35:07.377Z,45.80
2019-05-06T16:37:36.367Z,44.70
2019-05-06T16:40:06.058Z,42.54
2019-05-06T16:42:35.069Z,40.82
2019-05-06T16:45:06.815Z,39.18
2019-05-06T16:47:38.251Z,40.37
2019-05-06T16:50:09.713Z,40.56
2019-05-06T16:52:39.081Z,42.10
2019-05-06T16:55:11.370Z,43.37
2019-05-06T16:57:42.880Z,42.93
2019-05-06T17:00:14.002Z,43.21
2019-05-06T17:02:57.870Z,44.25
2019-05-06T17:05:57.656Z,44.23
2019-05-06T17:08:26.327Z,44.57
2019-05-06T17:10:55.756Z,44.40
2019-05-06T17:13:24.637Z,43.87
2019-05-06T17:15:53.479Z,43.02
2019-05-06T17:18:22.774Z,43.16
2019-05-06T17:20:51.832Z,44.27
2019-05-06T17:23:22.412Z,45.17
2019-05-06T17:25:52.083Z,46.15
2019-05-06T17:28:28.101Z,46.53
2019-05-06T17:31:07.260Z,46.67
2019-05-06T17:33:38.479Z,47.30
2019-05-06T17:36:08.400Z,47.78
2019-05-06T17:38:48.675Z,48.57
2019-05-06T17:41:17.670Z,48.28
2019-05-06T17:43:46.592Z,48.52
2019-05-06T17:46:17.501Z,49.29
2019-05-06T17:49:02.371Z,49.55
2019-05-06T17:51:37.536Z,49.65
2019-05-06T17:54:06.836Z,49.86
2019-05-06T17:56:35.657Z,49.65
2019-05-06T17:59:05.122Z,49.50
2019-05-06T18:01:37.850Z,50.34
2019-05-06T18:04:06.873Z,51.01
2019-05-06T18:06:35.712Z,51.18
2019-05-06T18:09:07.272Z,51.31
2019-05-06T18:11:35.949Z,51.26
2019-05-06T18:14:04.903Z,50.58
2019-05-06T18:16:34.038Z,50.79
2019-05-06T18:19:03.253Z,51.43
2019-05-06T18:21:32.302Z,51.82
2019-05-06T18:24:03.107Z,51.34
2019-05-06T18:26:32.772Z,51.22
2019-05-06T18:29:02.663Z,51.17
2019-05-06T18:31:33.799Z,51.37
2019-05-06T18:34:03.879Z,51.84
2019-05-06T18:36:33.358Z,52.01
2019-05-06T18:39:03.503Z,52.57
2019-05-06T18:41:33.008Z,52.43
2019-05-06T18:44:01.752Z,52.25
2019-05-06T18:46:32.193Z,52.55
2019-05-06T18:49:02.509Z,52.71
2019-05-06T18:51:32.010Z,51.94
2019-05-06T18:54:02.999Z,52.50
2019-05-06T18:56:32.430Z,52.74
2019-05-06T18:59:02.858Z,54.31
2019-05-06T19:01:33.161Z,52.62
2019-05-06T19:04:09.149Z,52.62
2019-05-06T19:06:38.024Z,53.65
2019-05-06T19:09:42.442Z,52.61
2019-05-06T19:12:12.817Z,52.92
2019-05-06T19:14:43.278Z,52.70
2019-05-06T19:17:13.159Z,53.11
2019-05-06T19:19:42.821Z,52.60
2019-05-06T19:22:14.052Z,51.38
2019-05-06T19:24:44.674Z,52.27
2019-05-06T19:27:13.814Z,52.01
2019-05-06T19:29:45.982Z,52.19
2019-05-06T19:32:14.703Z,52.13
2019-05-06T19:34:43.567Z,52.38
2019-05-06T19:37:12.274Z,52.50
2019-05-06T19:39:43.082Z,52.89
2019-05-06T19:42:12.960Z,52.89
2019-05-06T19:44:43.167Z,53.15
2019-05-06T19:47:13.555Z,53.71
2019-05-06T19:49:42.473Z,53.79
2019-05-06T19:52:11.637Z,54.14
2019-05-06T19:54:42.490Z,54.38
2019-05-06T19:57:12.473Z,54.44
2019-05-06T19:59:42.498Z,55.05
2019-05-06T20:02:12.863Z,54.98
2019-05-06T20:04:44.424Z,55.46
2019-05-06T20:07:27.871Z,55.51
2019-05-06T20:10:18.383Z,55.63
2019-05-06T20:13:01.205Z,55.86
2019-05-06T20:15:38.735Z,56.41
2019-05-06T20:18:08.865Z,56.21
2019-05-06T20:20:38.467Z,56.11
2019-05-06T20:23:07.759Z,56.91
2019-05-06T20:25:37.196Z,57.74
2019-05-06T20:28:06.338Z,57.57
2019-05-06T20:30:35.451Z,57.81
2019-05-06T20:33:04.600Z,57.73
2019-05-06T20:35:33.780Z,57.85
2019-05-06T20:38:03.373Z,57.79
2019-05-06T20:40:32.940Z,58.23
2019-05-06T20:43:14.224Z,58.87
2019-05-06T20:45:35.209Z,58.77
2019-05-06T20:48:03.338Z,58.76
2019-05-06T20:50:32.398Z,58.73
2019-05-06T20:53:01.219Z,58.71
2019-05-06T20:55:34.732Z,59.55
2019-05-06T20:58:02.623Z,59.51
2019-05-06T21:00:33.435Z,59.70
2019-05-06T21:03:02.224Z,59.37
2019-05-06T21:05:32.312Z,59.35
2019-05-06T21:08:02.175Z,59.30
2019-05-06T21:10:32.891Z,59.60
2019-05-06T21:13:02.463Z,59.71
2019-05-06T21:15:32.330Z,59.90
2019-05-06T21:18:04.334Z,60.61
2019-05-06T21:20:33.004Z,60.60
2019-05-06T21:23:02.387Z,60.71
2019-05-06T21:25:32.241Z,60.79
2019-05-06T21:28:02.839Z,60.84
2019-05-06T21:30:32.296Z,61.21
2019-05-06T21:33:01.502Z,62.53
2019-05-06T21:35:30.156Z,62.53
2019-05-06T21:37:59.075Z,62.24
2019-05-06T21:40:28.079Z,62.65
2019-05-06T21:42:57.378Z,63.22
2019-05-06T21:45:25.985Z,63.82
2019-05-06T21:47:54.981Z,63.82
2019-05-06T21:50:23.941Z,63.21
2019-05-06T21:52:52.586Z,63.21
2019-05-06T21:55:22.724Z,63.57
2019-05-06T21:57:52.964Z,63.57
2019-05-06T22:00:25.959Z,63.30
2019-05-06T22:02:55.260Z,64.09
2019-05-06T22:05:23.913Z,65.36
2019-05-06T22:07:52.874Z,66.06
2019-05-06T22:10:22.705Z,66.30
2019-05-06T22:12:52.748Z,66.30
2019-05-06T22:15:22.750Z,67.52
2019-05-06T22:17:54.355Z,68.08
2019-05-06T22:20:23.780Z,68.06
2019-05-06T22:22:52.570Z,68.19
2019-05-06T22:25:22.099Z,68.48
2019-05-06T22:27:51.950Z,68.48
2019-05-06T22:30:23.645Z,68.75
2019-05-06T22:32:52.674Z,69.03
2019-05-06T22:35:23.091Z,69.26
2019-05-06T22:37:52.953Z,69.94
2019-05-06T22:40:23.808Z,70.50
2019-05-06T22:42:52.987Z,71.02
2019-05-06T22:45:22.312Z,71.35
2019-05-06T22:47:51.273Z,71.27
2019-05-06T22:50:22.454Z,71.27
2019-05-06T22:52:52.854Z,71.60
2019-05-06T22:55:22.202Z,71.89
2019-05-06T22:57:52.825Z,72.75
2019-05-06T23:00:23.600Z,72.47
2019-05-06T23:02:57.414Z,72.67
2019-05-06T23:05:26.332Z,72.67
2019-05-06T23:07:55.311Z,72.64
2019-05-06T23:10:24.914Z,72.87
2019-05-06T23:12:53.919Z,73.18
2019-05-06T23:15:22.930Z,73.36
2019-05-06T23:17:52.678Z,73.79
2019-05-06T23:20:24.194Z,74.01
2019-05-06T23:22:52.281Z,74.00
2019-05-06T23:25:22.048Z,74.10
2019-05-06T23:27:52.986Z,74.52
2019-05-06T23:30:24.546Z,74.86
2019-05-06T23:32:53.441Z,74.93
2019-05-06T23:35:22.416Z,75.43
2019-05-06T23:38:27.370Z,75.43
2019-05-06T23:41:32.805Z,76.22
2019-05-06T23:44:45.544Z,76.22
2019-05-06T23:47:45.046Z,76.28
2019-05-06T23:50:50.088Z,75.81
2019-05-06T23:53:54.916Z,76.63
2019-05-06T23:56:44.263Z,76.60
2019-05-06T23:59:15.258Z,76.38
